createdAt,value
2023-04-16T00:03:46.604Z,25.10
2023-04-16T00:09:09.058Z,29.10
2023-04-16T00:14:31.195Z,27.40
2023-04-16T00:19:52.928Z,30.30
2023-04-16T00:25:15.354Z,37.70
2023-04-16T00:30:40.335Z,32.00
2023-04-16T00:36:02.322Z,17.30
2023-04-16T00:41:24.547Z,20.60
2023-04-16T00:46:47.102Z,24.90
2023-04-16T00:52:14.524Z,23.30
2023-04-16T00:57:36.346Z,21.50
2023-04-16T01:03:01.004Z,22.70
2023-04-16T01:08:23.226Z,21.40
2023-04-16T01:13:45.266Z,23.40
2023-04-16T01:19:07.409Z,19.90
2023-04-16T01:24:29.491Z,18.20
2023-04-16T01:29:54.160Z,20.50
2023-04-16T01:35:20.607Z,20.30
2023-04-16T01:40:44.036Z,20.50
2023-04-16T01:46:28.166Z,22.20
2023-04-16T01:51:49.963Z,18.70
2023-04-16T01:57:12.307Z,19.50
2023-04-16T02:02:35.235Z,20.80
2023-04-16T02:07:57.269Z,22.70
2023-04-16T02:13:20.802Z,20.90
2023-04-16T02:18:42.932Z,20.90
2023-04-16T02:24:06.380Z,20.40
2023-04-16T02:29:29.200Z,21.40
2023-04-16T02:34:57.352Z,23.10
2023-04-16T02:40:18.978Z,22.80
2023-04-16T02:45:41.038Z,23.30
2023-04-16T02:51:03.044Z,23.90
2023-04-16T02:56:24.865Z,25.90
2023-04-16T03:01:46.604Z,33.00
2023-04-16T03:07:09.438Z,59.40
2023-04-16T03:12:31.151Z,48.20
2023-04-16T03:17:53.556Z,25.90
2023-04-16T03:23:15.316Z,21.40
2023-04-16T03:28:37.343Z,21.70
2023-04-16T03:34:00.101Z,19.00
2023-04-16T03:39:21.717Z,17.10
2023-04-16T03:44:43.781Z,19.10
2023-04-16T03:50:07.068Z,24.60
2023-04-16T03:55:29.100Z,22.80
2023-04-16T04:00:55.057Z,24.70
2023-04-16T04:06:17.074Z,23.60
2023-04-16T04:11:40.550Z,22.90
2023-04-16T04:17:02.810Z,27.30
2023-04-16T04:22:27.780Z,25.00
2023-04-16T04:27:49.806Z,20.30
2023-04-16T04:33:14.786Z,18.70
2023-04-16T04:38:37.976Z,19.50
2023-04-16T04:43:59.721Z,84.70
2023-04-16T04:49:21.737Z,27.90
2023-04-16T04:54:44.021Z,26.70
2023-04-16T05:00:06.807Z,21.00
2023-04-16T05:05:35.856Z,18.20
2023-04-16T05:10:59.617Z,18.10
2023-04-16T05:16:21.451Z,18.90
2023-04-16T05:21:45.467Z,18.20
2023-04-16T05:27:08.599Z,17.90
2023-04-16T05:32:32.150Z,19.50
2023-04-16T05:37:53.834Z,19.00
2023-04-16T05:43:15.806Z,19.00
2023-04-16T05:48:38.020Z,17.40
2023-04-16T05:53:59.543Z,20.40
2023-04-16T05:59:22.801Z,21.50
2023-04-16T06:04:44.410Z,23.00
2023-04-16T06:10:06.557Z,21.50
2023-04-16T06:15:28.632Z,21.90
2023-04-16T06:20:52.979Z,22.20
2023-04-16T06:26:14.885Z,19.00
2023-04-16T06:31:37.051Z,22.60
2023-04-16T06:36:59.068Z,20.90
2023-04-16T06:42:23.022Z,23.10
2023-04-16T06:47:45.247Z,20.70
2023-04-16T06:53:07.377Z,19.70
2023-04-16T06:58:29.425Z,18.80
2023-04-16T07:03:51.456Z,19.80
2023-04-16T07:09:13.575Z,31.50
2023-04-16T07:14:35.783Z,16.10
2023-04-16T07:19:57.572Z,15.30
2023-04-16T07:25:19.621Z,14.30
2023-04-16T07:30:44.611Z,14.70
2023-04-16T07:36:07.254Z,13.30
2023-04-16T07:41:29.768Z,40.00
2023-04-16T07:46:51.510Z,15.60
2023-04-16T07:52:13.735Z,29.60
2023-04-16T07:57:36.161Z,11.80
2023-04-16T08:02:58.421Z,9.30
2023-04-16T08:08:20.736Z,8.80
2023-04-16T08:13:42.649Z,51.40
2023-04-16T08:19:04.496Z,17.00
2023-04-16T08:24:27.063Z,16.10
2023-04-16T08:29:49.265Z,8.70
2023-04-16T08:35:10.693Z,6.60
2023-04-16T08:40:32.912Z,6.40
2023-04-16T08:45:56.744Z,8.60
2023-04-16T08:51:20.192Z,6.60
2023-04-16T08:56:44.303Z,6.60
2023-04-16T09:02:07.204Z,5.50
2023-04-16T09:07:29.881Z,9.70
2023-04-16T09:12:52.309Z,5.90
2023-04-16T09:18:14.040Z,12.40
2023-04-16T09:23:37.620Z,6.80
2023-04-16T09:28:59.603Z,6.40
2023-04-16T09:34:21.639Z,6.30
2023-04-16T09:39:44.561Z,7.60
2023-04-16T09:45:09.754Z,7.80
2023-04-16T09:50:31.642Z,7.50
2023-04-16T09:55:57.669Z,12.10
2023-04-16T10:01:20.400Z,7.90
2023-04-16T10:06:42.640Z,8.80
2023-04-16T10:12:05.646Z,6.70
2023-04-16T10:17:30.180Z,13.20
2023-04-16T10:22:53.188Z,6.60
2023-04-16T10:28:16.219Z,6.70
2023-04-16T10:33:41.941Z,8.20
2023-04-16T10:39:04.049Z,5.70
2023-04-16T10:44:26.077Z,5.40
2023-04-16T10:49:51.301Z,5.30
2023-04-16T10:55:17.505Z,5.90
2023-04-16T11:00:51.256Z,7.00
2023-04-16T11:06:19.911Z,4.90
2023-04-16T11:11:41.500Z,4.40
2023-04-16T11:17:04.045Z,5.60
2023-04-16T11:22:26.071Z,5.60
2023-04-16T11:27:48.424Z,5.90
2023-04-16T11:33:11.874Z,4.60
2023-04-16T11:38:37.693Z,6.30
2023-04-16T11:43:59.434Z,5.70
2023-04-16T11:49:28.874Z,6.50
2023-04-16T11:54:51.197Z,5.40
2023-04-16T12:00:14.240Z,5.30
2023-04-16T12:05:38.954Z,5.40
2023-04-16T12:11:00.608Z,8.40
2023-04-16T12:16:26.470Z,6.00
2023-04-16T12:21:51.223Z,10.60
2023-04-16T12:27:13.106Z,5.40
2023-04-16T12:32:36.279Z,5.40
2023-04-16T12:37:58.283Z,5.60
2023-04-16T12:43:21.581Z,5.70
2023-04-16T12:48:43.836Z,5.00
2023-04-16T12:54:09.842Z,7.20
2023-04-16T12:59:31.711Z,6.80
2023-04-16T13:04:54.043Z,8.80
2023-04-16T13:10:16.878Z,5.80
2023-04-16T13:15:38.435Z,5.60
2023-04-16T13:21:00.235Z,5.50
2023-04-16T13:26:22.203Z,5.60
2023-04-16T13:31:43.824Z,5.20
2023-04-16T13:37:06.326Z,4.30
2023-04-16T13:42:28.569Z,4.20
2023-04-16T13:47:50.414Z,31.50
2023-04-16T13:53:12.318Z,7.70
2023-04-16T13:58:34.031Z,7.20
2023-04-16T14:03:56.121Z,7.80
2023-04-16T14:09:17.889Z,7.10
2023-04-16T14:14:39.950Z,8.60
2023-04-16T14:20:01.674Z,7.40
2023-04-16T14:25:23.883Z,6.60
2023-04-16T14:30:45.912Z,6.60
2023-04-16T14:36:10.255Z,7.70
2023-04-16T14:41:33.063Z,7.80
2023-04-16T14:46:55.529Z,9.00
2023-04-16T14:52:17.254Z,7.20
2023-04-16T14:57:39.216Z,6.80
2023-04-16T15:03:01.654Z,7.50
2023-04-16T15:08:24.132Z,9.20
2023-04-16T15:13:48.216Z,9.20
2023-04-16T15:19:10.185Z,12.50
2023-04-16T15:24:32.933Z,8.00
2023-04-16T15:29:54.462Z,8.10
2023-04-16T15:35:16.606Z,10.80
2023-04-16T15:40:38.830Z,8.00
2023-04-16T15:46:01.674Z,7.60
2023-04-16T15:51:23.406Z,10.50
2023-04-16T15:56:46.842Z,8.90
2023-04-16T16:02:08.495Z,14.20
2023-04-16T16:07:33.892Z,9.90
2023-04-16T16:12:57.363Z,9.50
2023-04-16T16:18:19.253Z,9.40
2023-04-16T16:23:41.189Z,6.30
2023-04-16T16:29:03.014Z,7.00
2023-04-16T16:34:25.024Z,5.60
2023-04-16T16:39:47.371Z,7.20
2023-04-16T16:45:09.814Z,9.70
2023-04-16T16:50:34.743Z,9.20
2023-04-16T16:55:56.475Z,9.40
2023-04-16T17:01:18.750Z,9.70
2023-04-16T17:06:43.382Z,11.10
2023-04-16T17:12:05.623Z,10.10
2023-04-16T17:17:28.669Z,10.70
2023-04-16T17:22:51.439Z,11.00
2023-04-16T17:28:13.082Z,7.90
2023-04-16T17:33:35.032Z,10.00
2023-04-16T17:38:56.557Z,10.00
2023-04-16T17:44:18.463Z,11.70
2023-04-16T17:49:40.500Z,14.90
2023-04-16T17:55:03.615Z,19.10
2023-04-16T18:00:25.471Z,20.50
2023-04-16T18:05:47.445Z,22.10
2023-04-16T18:11:09.439Z,25.70
2023-04-16T18:16:31.132Z,23.70
2023-04-16T18:21:52.866Z,18.60
2023-04-16T18:27:14.993Z,16.00
2023-04-16T18:32:46.821Z,17.90
2023-04-16T18:38:16.506Z,18.80
2023-04-16T18:43:38.515Z,17.20
2023-04-16T18:49:00.767Z,17.00
2023-04-16T18:54:23.219Z,17.40
2023-04-16T18:59:45.239Z,15.50
2023-04-16T19:05:09.703Z,15.40
2023-04-16T19:10:33.710Z,15.20
2023-04-16T19:15:59.976Z,17.50
2023-04-16T19:21:22.092Z,14.40
2023-04-16T19:26:44.342Z,15.50
2023-04-16T19:32:09.002Z,16.50
2023-04-16T19:37:31.186Z,16.20
2023-04-16T19:42:53.112Z,20.50
2023-04-16T19:48:15.690Z,24.00
2023-04-16T19:53:38.503Z,23.40
2023-04-16T19:59:03.333Z,25.10
2023-04-16T20:04:25.399Z,25.00
2023-04-16T20:09:47.270Z,26.00
2023-04-16T20:15:09.684Z,26.90
2023-04-16T20:20:40.262Z,25.40
2023-04-16T20:26:02.111Z,18.10
2023-04-16T20:31:24.303Z,12.90
2023-04-16T20:36:46.355Z,12.70
2023-04-16T20:42:11.387Z,13.50
2023-04-16T20:47:35.973Z,10.60
2023-04-16T20:52:57.961Z,10.60
2023-04-16T20:58:19.993Z,12.50
2023-04-16T21:03:42.374Z,14.10
2023-04-16T21:09:06.155Z,13.40
2023-04-16T21:14:27.988Z,13.50
2023-04-16T21:19:50.176Z,11.40
2023-04-16T21:25:12.047Z,10.80
2023-04-16T21:30:33.776Z,10.10
2023-04-16T21:35:56.330Z,9.40
2023-04-16T21:41:18.337Z,9.70
2023-04-16T21:46:41.321Z,13.00
2023-04-16T21:52:03.083Z,18.80
2023-04-16T21:57:25.533Z,13.20
2023-04-16T22:02:47.339Z,11.80
2023-04-16T22:08:23.459Z,11.40
2023-04-16T22:13:47.787Z,10.50
2023-04-16T22:19:09.835Z,10.60
2023-04-16T22:24:31.827Z,9.70
2023-04-16T22:29:56.485Z,9.70
2023-04-16T22:35:18.401Z,9.30
2023-04-16T22:40:40.511Z,9.60
2023-04-16T22:46:06.836Z,9.50
2023-04-16T22:51:29.519Z,13.70
2023-04-16T22:56:52.444Z,12.30
2023-04-16T23:02:14.132Z,11.10
2023-04-16T23:07:36.598Z,10.20
2023-04-16T23:12:58.178Z,9.40
2023-04-16T23:18:20.358Z,8.90
2023-04-16T23:23:42.286Z,9.40
2023-04-16T23:29:04.100Z,11.10
2023-04-16T23:34:27.255Z,12.10
2023-04-16T23:39:58.205Z,9.90
2023-04-16T23:45:20.501Z,9.50
2023-04-16T23:50:41.983Z,9.10
2023-04-16T23:56:04.137Z,8.80
